Time;durP1;ratioP1;P1;durP2;ratioP2;P2;SDS_P1;SDS_P2;PMS_P1;PMS_P2;Temp;Humidity;BMP_temperature;BMP_pressure;BME280_temperature;BME280_humidity;BME280_pressure;Samples;Min_cycle;Max_cycle;Signal;HPM_P1;HPM_P2
2021/07/31 00:02:18;;;;;;;6.63;4.25;;;;;;;;;;5094850;28;20028;-81
2021/07/31 00:04:44;;;;;;;7.35;4.03;;;;;;;;;;5094732;28;20028;-81
2021/07/31 00:07:09;;;;;;;6.93;3.75;;;;;;;;;;5094617;28;20490;-81
2021/07/31 00:09:34;;;;;;;7.32;3.75;;;;;;;;;;5094647;28;20016;-81
2021/07/31 00:12:00;;;;;;;6.20;4.10;;;;;;;;;;5094643;28;20032;-81
2021/07/31 00:14:25;;;;;;;5.63;4.07;;;;;;;;;;5094471;28;20485;-81
2021/07/31 00:16:50;;;;;;;8.68;4.30;;;;;;;;;;5094752;28;20027;-81
2021/07/31 00:19:16;;;;;;;7.40;4.38;;;;;;;;;;5094362;28;20040;-81
2021/07/31 00:21:41;;;;;;;9.20;4.65;;;;;;;;;;5053143;28;1195773;-81
2021/07/31 00:24:06;;;;;;;9.98;4.15;;;;;;;;;;5095352;28;20028;-81
2021/07/31 00:26:31;;;;;;;8.60;4.20;;;;;;;;;;5094936;28;20457;-81
2021/07/31 00:28:57;;;;;;;11.52;4.25;;;;;;;;;;5095385;28;20015;-81
2021/07/31 00:31:23;;;;;;;8.82;4.60;;;;;;;;;;5095197;28;20024;-81
2021/07/31 00:33:48;;;;;;;13.35;4.72;;;;;;;;;;5094901;28;20473;-81
2021/07/31 00:36:13;;;;;;;9.88;5.45;;;;;;;;;;5095313;28;20027;-81
2021/07/31 00:38:39;;;;;;;8.75;5.47;;;;;;;;;;5095050;28;20055;-81
2021/07/31 00:41:04;;;;;;;12.18;5.97;;;;;;;;;;5094600;28;20534;-81
2021/07/31 00:43:29;;;;;;;11.18;5.90;;;;;;;;;;5095026;28;20016;-81
2021/07/31 00:45:54;;;;;;;11.75;6.18;;;;;;;;;;5094903;28;20032;-82
2021/07/31 00:48:20;;;;;;;11.25;5.80;;;;;;;;;;5094900;28;20031;-81
2021/07/31 00:50:45;;;;;;;12.57;6.05;;;;;;;;;;5094049;28;20017;-82
2021/07/31 00:53:11;;;;;;;13.45;6.05;;;;;;;;;;5094621;28;20036;-81
2021/07/31 00:55:37;;;;;;;9.07;5.30;;;;;;;;;;5094698;28;20028;-81
2021/07/31 00:58:03;;;;;;;9.02;5.68;;;;;;;;;;5094739;28;20146;-81
2021/07/31 01:00:28;;;;;;;7.82;5.95;;;;;;;;;;5092254;28;20458;-81
2021/07/31 01:02:53;;;;;;;16.92;6.05;;;;;;;;;;5092903;28;20238;-81
2021/07/31 01:05:19;;;;;;;8.43;5.38;;;;;;;;;;5094205;28;20107;-81
2021/07/31 01:07:44;;;;;;;14.20;6.28;;;;;;;;;;5094301;28;20392;-81
2021/07/31 01:10:10;;;;;;;11.15;5.78;;;;;;;;;;5094276;28;20028;-81
2021/07/31 01:12:35;;;;;;;14.65;6.72;;;;;;;;;;5094407;28;20020;-81
2021/07/31 01:15:01;;;;;;;16.02;7.07;;;;;;;;;;5094459;28;20425;-81
2021/07/31 01:17:26;;;;;;;12.82;6.38;;;;;;;;;;5094386;28;20071;-81
2021/07/31 01:19:51;;;;;;;13.00;7.00;;;;;;;;;;5094163;28;20024;-81
2021/07/31 01:22:17;;;;;;;13.32;6.35;;;;;;;;;;5093934;28;20043;-81
2021/07/31 01:24:42;;;;;;;10.23;5.60;;;;;;;;;;5094295;28;20061;-81
2021/07/31 01:27:08;;;;;;;9.85;5.38;;;;;;;;;;5094194;28;20460;-81
2021/07/31 01:29:33;;;;;;;8.23;5.75;;;;;;;;;;5093958;28;20028;-81
2021/07/31 01:31:58;;;;;;;9.85;6.28;;;;;;;;;;5093334;28;20108;-81
2021/07/31 01:34:24;;;;;;;11.30;5.68;;;;;;;;;;5093818;28;20464;-81
2021/07/31 01:36:49;;;;;;;12.98;5.93;;;;;;;;;;5093668;28;20039;-81
2021/07/31 01:39:15;;;;;;;18.05;6.35;;;;;;;;;;5093664;28;20042;-81
2021/07/31 01:41:40;;;;;;;13.80;5.80;;;;;;;;;;5093548;28;20028;-81
2021/07/31 01:44:05;;;;;;;13.82;6.90;;;;;;;;;;5093490;28;20023;-81
2021/07/31 01:46:30;;;;;;;7.25;5.22;;;;;;;;;;5093787;28;20042;-81
2021/07/31 01:48:56;;;;;;;7.20;5.22;;;;;;;;;;5094121;28;20012;-82
2021/07/31 01:51:21;;;;;;;8.93;5.47;;;;;;;;;;5093756;28;20020;-81
2021/07/31 01:53:46;;;;;;;8.95;4.63;;;;;;;;;;5093822;28;20349;-81
2021/07/31 01:56:12;;;;;;;11.20;4.75;;;;;;;;;;5093816;28;20024;-81
2021/07/31 01:58:37;;;;;;;8.95;4.72;;;;;;;;;;5093676;28;20024;-81
2021/07/31 02:01:03;;;;;;;6.95;3.78;;;;;;;;;;5093097;28;20373;-81
2021/07/31 02:03:28;;;;;;;5.75;4.53;;;;;;;;;;5093658;28;20107;-81
2021/07/31 02:05:54;;;;;;;7.20;4.43;;;;;;;;;;5093593;28;20099;-81
2021/07/31 02:08:19;;;;;;;9.20;4.63;;;;;;;;;;5093307;28;20035;-81
2021/07/31 02:10:44;;;;;;;13.63;4.47;;;;;;;;;;5093593;28;20117;-81
2021/07/31 02:13:10;;;;;;;7.28;4.28;;;;;;;;;;5093536;28;20040;-81
2021/07/31 02:15:39;;;;;;;10.38;4.18;;;;;;;;;;5093502;28;20039;-81
2021/07/31 02:18:04;;;;;;;8.13;4.55;;;;;;;;;;5093415;28;20074;-81
2021/07/31 02:20:30;;;;;;;8.63;4.75;;;;;;;;;;5092921;28;20056;-81
2021/07/31 02:22:55;;;;;;;5.97;4.40;;;;;;;;;;5093436;28;20074;-81
2021/07/31 02:25:20;;;;;;;8.23;4.43;;;;;;;;;;5093317;28;20024;-81
2021/07/31 02:27:45;;;;;;;10.32;4.88;;;;;;;;;;5093812;28;20020;-81
2021/07/31 02:30:11;;;;;;;7.25;4.78;;;;;;;;;;5093292;28;20052;-82
2021/07/31 02:32:36;;;;;;;9.07;4.47;;;;;;;;;;5093120;28;20046;-81
2021/07/31 02:35:02;;;;;;;7.53;4.13;;;;;;;;;;5093220;28;20053;-82
2021/07/31 02:37:27;;;;;;;7.22;5.00;;;;;;;;;;5093393;28;20039;-81
2021/07/31 02:39:53;;;;;;;7.47;5.20;;;;;;;;;;5093195;28;20024;-81
2021/07/31 02:42:18;;;;;;;9.82;5.13;;;;;;;;;;5093212;28;20115;-81
2021/07/31 02:44:43;;;;;;;9.02;5.53;;;;;;;;;;5093327;28;20388;-81
2021/07/31 02:47:09;;;;;;;11.95;5.90;;;;;;;;;;5093126;28;20042;-82
2021/07/31 02:49:34;;;;;;;13.07;5.20;;;;;;;;;;5093012;28;20173;-81
2021/07/31 02:51:59;;;;;;;7.60;5.22;;;;;;;;;;5093104;28;20043;-81
2021/07/31 02:54:25;;;;;;;7.32;5.30;;;;;;;;;;5093260;28;20049;-82
2021/07/31 02:56:50;;;;;;;9.50;5.28;;;;;;;;;;5093414;28;20024;-81
2021/07/31 02:59:15;;;;;;;11.05;4.82;;;;;;;;;;5093078;28;20108;-82
2021/07/31 03:01:40;;;;;;;7.68;5.22;;;;;;;;;;5093039;28;20033;-81
2021/07/31 03:04:06;;;;;;;8.65;5.47;;;;;;;;;;5093024;28;20456;-82
2021/07/31 03:06:31;;;;;;;7.65;5.53;;;;;;;;;;5093158;28;20115;-82
2021/07/31 03:08:56;;;;;;;9.70;5.57;;;;;;;;;;5093109;28;20024;-83
2021/07/31 03:11:23;;;;;;;10.38;6.35;;;;;;;;;;5092973;28;20036;-81
2021/07/31 03:13:48;;;;;;;11.35;5.82;;;;;;;;;;5094048;28;20040;-81
2021/07/31 03:16:13;;;;;;;10.00;6.55;;;;;;;;;;5096585;28;20043;-81
2021/07/31 03:18:38;;;;;;;8.18;5.82;;;;;;;;;;5096486;28;20114;-81
2021/07/31 03:21:04;;;;;;;9.63;6.15;;;;;;;;;;5096520;28;20054;-81
2021/07/31 03:23:29;;;;;;;10.15;5.90;;;;;;;;;;5096654;28;20073;-82
2021/07/31 03:25:55;;;;;;;10.63;5.65;;;;;;;;;;5096528;28;20449;-81
2021/07/31 03:28:20;;;;;;;8.55;6.07;;;;;;;;;;5096696;28;20039;-81
2021/07/31 03:30:46;;;;;;;11.73;6.30;;;;;;;;;;5096533;28;20012;-82
2021/07/31 03:33:12;;;;;;;10.23;5.28;;;;;;;;;;5096378;28;20093;-81
2021/07/31 03:35:38;;;;;;;12.82;6.15;;;;;;;;;;5096370;28;20456;-81
2021/07/31 03:38:03;;;;;;;8.25;6.15;;;;;;;;;;5096175;28;20024;-81
2021/07/31 03:40:29;;;;;;;13.80;6.10;;;;;;;;;;5096307;28;20090;-82
2021/07/31 03:42:54;;;;;;;17.88;6.18;;;;;;;;;;5095048;28;20485;-81
2021/07/31 03:45:19;;;;;;;12.02;5.75;;;;;;;;;;5096175;28;20453;-81
2021/07/31 03:47:45;;;;;;;14.18;6.35;;;;;;;;;;5096120;28;20030;-82
2021/07/31 03:50:10;;;;;;;13.77;6.43;;;;;;;;;;5095979;28;20456;-81
2021/07/31 03:52:35;;;;;;;14.57;5.90;;;;;;;;;;5096357;28;20099;-81
2021/07/31 03:55:01;;;;;;;13.10;5.70;;;;;;;;;;5095896;28;20032;-81
2021/07/31 03:57:27;;;;;;;10.85;6.15;;;;;;;;;;5096318;28;20456;-81
2021/07/31 03:59:52;;;;;;;15.00;6.53;;;;;;;;;;5095855;28;20031;-82
2021/07/31 04:02:18;;;;;;;13.70;6.38;;;;;;;;;;5095835;28;20075;-81
2021/07/31 04:04:43;;;;;;;12.63;6.88;;;;;;;;;;5095771;28;20396;-81
2021/07/31 04:07:08;;;;;;;15.02;6.43;;;;;;;;;;5095726;28;20071;-81
2021/07/31 04:09:34;;;;;;;15.70;6.97;;;;;;;;;;5095621;28;20369;-81
2021/07/31 04:11:59;;;;;;;10.93;6.53;;;;;;;;;;5094900;28;20081;-82
2021/07/31 04:14:24;;;;;;;12.43;6.85;;;;;;;;;;5095489;28;20024;-81
2021/07/31 04:16:49;;;;;;;11.52;6.53;;;;;;;;;;5095636;28;20035;-81
2021/07/31 04:19:15;;;;;;;9.90;6.75;;;;;;;;;;5095148;28;20028;-81
2021/07/31 04:21:40;;;;;;;15.60;6.63;;;;;;;;;;5095292;28;20127;-81
2021/07/31 04:24:05;;;;;;;10.13;6.00;;;;;;;;;;5095330;28;20063;-82
2021/07/31 04:26:31;;;;;;;16.45;7.13;;;;;;;;;;5094193;28;20123;-82
2021/07/31 04:28:56;;;;;;;10.25;6.18;;;;;;;;;;5095349;28;20024;-81
2021/07/31 04:31:21;;;;;;;12.63;7.00;;;;;;;;;;5095146;28;20028;-81
2021/07/31 04:33:46;;;;;;;12.02;6.43;;;;;;;;;;5095400;28;20093;-81
2021/07/31 04:36:12;;;;;;;10.23;6.20;;;;;;;;;;5094688;28;20027;-81
2021/07/31 04:38:38;;;;;;;9.98;6.00;;;;;;;;;;5095146;28;20036;-81
2021/07/31 04:41:04;;;;;;;7.47;5.10;;;;;;;;;;5094608;28;20051;-81
2021/07/31 04:43:29;;;;;;;7.18;4.82;;;;;;;;;;5095076;28;20060;-81
2021/07/31 04:45:55;;;;;;;8.82;5.30;;;;;;;;;;5095032;28;20031;-81
2021/07/31 04:48:20;;;;;;;8.48;5.35;;;;;;;;;;5094940;28;20039;-81
2021/07/31 04:50:45;;;;;;;11.45;5.82;;;;;;;;;;5094978;28;20099;-81
2021/07/31 04:53:11;;;;;;;9.73;5.65;;;;;;;;;;5095223;28;20024;-82
2021/07/31 04:55:36;;;;;;;15.43;6.63;;;;;;;;;;5094537;28;20078;-81
2021/07/31 04:58:01;;;;;;;10.68;6.53;;;;;;;;;;5094733;28;20095;-82
2021/07/31 05:00:26;;;;;;;7.93;5.75;;;;;;;;;;5094759;28;20418;-81
2021/07/31 05:02:52;;;;;;;10.48;6.43;;;;;;;;;;5094650;28;20425;-81
2021/07/31 05:05:17;;;;;;;10.07;6.68;;;;;;;;;;5094531;28;20494;-81
2021/07/31 05:07:42;;;;;;;15.50;6.40;;;;;;;;;;5094548;28;20114;-81
2021/07/31 05:10:08;;;;;;;11.48;6.80;;;;;;;;;;5094425;28;20457;-81
2021/07/31 05:12:33;;;;;;;12.82;6.72;;;;;;;;;;5094459;28;20039;-81
2021/07/31 05:14:59;;;;;;;11.80;5.82;;;;;;;;;;5094439;28;20519;-82
2021/07/31 05:17:24;;;;;;;12.02;6.00;;;;;;;;;;5093019;28;20043;-81
2021/07/31 05:19:49;;;;;;;10.48;6.13;;;;;;;;;;5094156;28;20487;-81
2021/07/31 05:22:15;;;;;;;16.15;6.25;;;;;;;;;;5094178;28;20111;-82
2021/07/31 05:24:41;;;;;;;7.43;5.50;;;;;;;;;;5093971;28;20111;-81
2021/07/31 05:27:06;;;;;;;9.27;5.90;;;;;;;;;;5094390;28;20020;-81
2021/07/31 05:29:32;;;;;;;10.75;5.97;;;;;;;;;;5094168;28;20461;-82
2021/07/31 05:31:57;;;;;;;15.60;7.00;;;;;;;;;;5094179;28;20032;-81
2021/07/31 05:34:23;;;;;;;9.73;6.57;;;;;;;;;;5094058;28;20016;-81
2021/07/31 05:36:48;;;;;;;10.38;6.00;;;;;;;;;;5093708;28;20465;-81
2021/07/31 05:39:13;;;;;;;10.23;5.57;;;;;;;;;;5093841;28;20032;-82
2021/07/31 05:41:39;;;;;;;10.73;5.38;;;;;;;;;;5093768;28;20032;-82
2021/07/31 05:44:04;;;;;;;10.35;6.00;;;;;;;;;;5093877;28;20353;-82
2021/07/31 05:46:30;;;;;;;11.35;5.57;;;;;;;;;;5093584;28;20032;-81
2021/07/31 05:48:55;;;;;;;8.85;5.97;;;;;;;;;;5093792;28;20026;-81
2021/07/31 05:51:20;;;;;;;13.43;6.38;;;;;;;;;;5093672;28;20051;-81
2021/07/31 05:53:45;;;;;;;8.20;5.57;;;;;;;;;;5093650;28;20114;-81
2021/07/31 05:56:15;;;;;;;13.52;5.45;;;;;;;;;;5093459;28;20042;-81
2021/07/31 05:58:40;;;;;;;13.55;5.88;;;;;;;;;;5093752;28;20141;-81
2021/07/31 06:01:08;;;;;;;8.82;5.60;;;;;;;;;;5093622;28;20131;-81
2021/07/31 06:03:34;;;;;;;6.68;4.40;;;;;;;;;;5093643;28;20020;-82
2021/07/31 06:05:59;;;;;;;9.35;4.88;;;;;;;;;;5093797;28;20035;-82
2021/07/31 06:08:24;;;;;;;5.93;4.90;;;;;;;;;;5093475;28;20393;-82
2021/07/31 06:10:50;;;;;;;8.48;5.20;;;;;;;;;;5093593;28;20016;-82
2021/07/31 06:13:15;;;;;;;9.07;4.68;;;;;;;;;;5093456;28;20460;-81
2021/07/31 06:15:44;;;;;;;12.15;5.30;;;;;;;;;;5093607;28;20039;-81
2021/07/31 06:18:10;;;;;;;13.25;4.68;;;;;;;;;;5093432;28;20016;-81
2021/07/31 06:20:35;;;;;;;6.25;4.85;;;;;;;;;;5093243;28;20052;-82
2021/07/31 06:23:00;;;;;;;10.50;5.10;;;;;;;;;;5093242;28;20039;-81
2021/07/31 06:25:26;;;;;;;9.57;4.68;;;;;;;;;;5093466;28;20016;-82
2021/07/31 06:27:55;;;;;;;8.10;4.22;;;;;;;;;;5093400;28;20408;-81
2021/07/31 06:30:20;;;;;;;6.32;4.53;;;;;;;;;;5093372;28;20034;-81
2021/07/31 06:32:48;;;;;;;8.63;4.30;;;;;;;;;;5093407;28;20092;-82
2021/07/31 06:35:13;;;;;;;7.15;4.05;;;;;;;;;;5093217;28;20032;-82
2021/07/31 06:37:39;;;;;;;7.20;4.10;;;;;;;;;;5093370;28;20086;-81
2021/07/31 06:40:04;;;;;;;6.97;3.88;;;;;;;;;;5093194;28;20375;-82
2021/07/31 06:42:29;;;;;;;5.43;3.70;;;;;;;;;;5093365;28;20379;-81
2021/07/31 06:44:55;;;;;;;5.57;3.60;;;;;;;;;;5093035;28;20024;-81
2021/07/31 06:47:20;;;;;;;6.05;3.35;;;;;;;;;;5093530;28;20035;-82
2021/07/31 06:49:45;;;;;;;3.88;3.35;;;;;;;;;;5095482;28;20032;-82
2021/07/31 06:52:12;;;;;;;7.47;3.60;;;;;;;;;;5097126;28;20106;-82
2021/07/31 06:54:37;;;;;;;5.70;2.95;;;;;;;;;;5096758;28;20019;-81
2021/07/31 06:57:02;;;;;;;6.40;3.30;;;;;;;;;;5096675;28;20024;-82
2021/07/31 06:59:28;;;;;;;6.03;3.58;;;;;;;;;;5096421;28;20038;-82
2021/07/31 07:01:53;;;;;;;9.65;3.40;;;;;;;;;;5096387;28;20040;-82
2021/07/31 07:04:18;;;;;;;4.57;2.88;;;;;;;;;;5096919;28;20063;-82
2021/07/31 07:06:43;;;;;;;8.32;3.05;;;;;;;;;;5096992;28;20388;-82
2021/07/31 07:09:09;;;;;;;5.78;3.15;;;;;;;;;;5096835;28;20055;-82
2021/07/31 07:11:34;;;;;;;4.25;3.05;;;;;;;;;;5096881;28;20357;-82
2021/07/31 07:13:59;;;;;;;6.68;2.85;;;;;;;;;;5096842;28;20070;-82
2021/07/31 07:16:25;;;;;;;8.70;3.08;;;;;;;;;;5096638;28;20102;-82
2021/07/31 07:18:50;;;;;;;4.13;2.90;;;;;;;;;;5096665;28;20032;-81
2021/07/31 07:21:15;;;;;;;5.32;3.30;;;;;;;;;;5095435;28;20127;-81
2021/07/31 07:23:41;;;;;;;4.82;2.90;;;;;;;;;;5096331;28;20125;-81
2021/07/31 07:26:09;;;;;;;14.77;3.30;;;;;;;;;;5096161;28;20035;-82
2021/07/31 07:28:35;;;;;;;6.03;3.25;;;;;;;;;;5096469;28;20036;-81
2021/07/31 07:31:00;;;;;;;4.18;2.53;;;;;;;;;;5096250;28;20019;-81
2021/07/31 07:33:26;;;;;;;4.10;2.30;;;;;;;;;;5095077;28;20024;-81
2021/07/31 07:35:51;;;;;;;6.15;3.40;;;;;;;;;;5096108;28;20468;-81
2021/07/31 07:38:16;;;;;;;7.78;3.25;;;;;;;;;;5110511;28;20050;-80
2021/07/31 07:40:42;;;;;;;4.57;2.67;;;;;;;;;;5100128;28;20036;-80
2021/07/31 07:43:07;;;;;;;7.05;2.58;;;;;;;;;;5112759;28;20028;-80
2021/07/31 07:45:33;;;;;;;5.10;2.95;;;;;;;;;;5096613;28;20379;-80
2021/07/31 07:47:58;;;;;;;6.78;2.65;;;;;;;;;;5097060;28;20024;-80
2021/07/31 07:50:23;;;;;;;5.63;2.47;;;;;;;;;;5109053;28;20036;-80
2021/07/31 07:52:49;;;;;;;5.03;3.08;;;;;;;;;;5099518;27;20024;-81
2021/07/31 07:55:14;;;;;;;8.52;4.18;;;;;;;;;;5079032;28;20081;-81
2021/07/31 07:57:40;;;;;;;6.22;2.42;;;;;;;;;;5102909;28;20031;-81
2021/07/31 08:00:07;;;;;;;4.70;2.53;;;;;;;;;;5104825;28;20035;-81
2021/07/31 08:02:32;;;;;;;4.90;2.75;;;;;;;;;;5106721;28;20061;-82
2021/07/31 08:04:58;;;;;;;5.10;2.30;;;;;;;;;;5099026;28;20036;-82
2021/07/31 08:07:23;;;;;;;5.13;2.47;;;;;;;;;;5112567;28;20024;-81
2021/07/31 08:09:48;;;;;;;4.68;2.40;;;;;;;;;;5107645;28;20103;-81
2021/07/31 08:12:14;;;;;;;2.60;1.83;;;;;;;;;;5086357;28;20586;-83
2021/07/31 08:14:39;;;;;;;2.80;1.52;;;;;;;;;;5100670;28;20027;-81
2021/07/31 08:17:04;;;;;;;3.70;1.52;;;;;;;;;;5096427;28;20106;-81
2021/07/31 08:19:29;;;;;;;1.83;1.50;;;;;;;;;;5115182;28;20485;-82
2021/07/31 08:21:55;;;;;;;4.07;1.50;;;;;;;;;;5104674;28;20060;-81
2021/07/31 08:24:21;;;;;;;4.18;2.00;;;;;;;;;;5107174;28;20094;-81
2021/07/31 08:26:46;;;;;;;1.73;1.23;;;;;;;;;;5114857;28;20038;-81
2021/07/31 08:29:12;;;;;;;2.95;1.20;;;;;;;;;;5097768;28;20484;-82
2021/07/31 08:31:41;;;;;;;1.75;1.38;;;;;;;;;;5099263;28;20028;-81
2021/07/31 08:34:07;;;;;;;5.68;1.30;;;;;;;;;;5102445;28;20054;-81
2021/07/31 08:36:32;;;;;;;2.22;1.40;;;;;;;;;;5093113;28;20395;-82
2021/07/31 08:38:57;;;;;;;2.22;1.38;;;;;;;;;;5110070;28;20023;-81
2021/07/31 08:41:23;;;;;;;4.65;1.08;;;;;;;;;;5093018;28;20073;-81
2021/07/31 08:43:48;;;;;;;4.45;1.50;;;;;;;;;;5093097;28;20468;-81
2021/07/31 08:46:14;;;;;;;1.83;1.27;;;;;;;;;;5093230;28;20372;-81
2021/07/31 08:48:39;;;;;;;3.63;1.10;;;;;;;;;;5093608;28;20460;-81
2021/07/31 08:51:05;;;;;;;2.97;1.30;;;;;;;;;;5094474;28;20460;-82
2021/07/31 08:53:30;;;;;;;1.73;1.10;;;;;;;;;;5094298;28;20107;-81
2021/07/31 08:55:56;;;;;;;2.72;1.25;;;;;;;;;;5094234;28;20035;-82
2021/07/31 08:58:24;;;;;;;2.05;1.10;;;;;;;;;;5093943;28;20099;-81
2021/07/31 09:00:50;;;;;;;1.90;1.00;;;;;;;;;;5094368;28;20050;-81
2021/07/31 09:03:16;;;;;;;1.77;0.82;;;;;;;;;;5094686;28;20036;-81
2021/07/31 09:05:42;;;;;;;1.55;1.08;;;;;;;;;;5094336;28;20380;-81
2021/07/31 09:08:08;;;;;;;1.80;1.15;;;;;;;;;;5091166;28;20032;-83
2021/07/31 09:10:43;;;;;;;2.53;1.45;;;;;;;;;;5088515;28;20067;-82
2021/07/31 09:13:09;;;;;;;7.60;1.25;;;;;;;;;;5087537;28;20079;-81
2021/07/31 09:15:37;;;;;;;2.88;1.10;;;;;;;;;;5090398;28;20357;-81
2021/07/31 09:18:21;;;;;;;2.53;1.05;;;;;;;;;;5091146;28;20020;-81
2021/07/31 09:21:05;;;;;;;2.28;1.40;;;;;;;;;;5090347;28;20052;-82
2021/07/31 09:23:37;;;;;;;3.92;1.60;;;;;;;;;;5089447;28;20058;-82
2021/07/31 09:26:02;;;;;;;5.95;1.20;;;;;;;;;;5090954;28;20107;-81
2021/07/31 09:28:28;;;;;;;5.35;1.33;;;;;;;;;;5090602;28;20186;-81
2021/07/31 09:30:53;;;;;;;3.05;1.38;;;;;;;;;;5090715;28;20020;-82
2021/07/31 09:33:19;;;;;;;5.90;1.35;;;;;;;;;;5069079;28;20032;-82
2021/07/31 09:35:45;;;;;;;6.93;1.38;;;;;;;;;;5078636;28;20039;-81
2021/07/31 09:38:11;;;;;;;2.53;1.10;;;;;;;;;;5090847;28;20016;-82
2021/07/31 09:40:37;;;;;;;8.07;1.48;;;;;;;;;;5090232;28;20092;-81
2021/07/31 09:43:12;;;;;;;2.42;1.30;;;;;;;;;;5090667;28;20369;-81
2021/07/31 09:45:37;;;;;;;6.88;1.95;;;;;;;;;;5090529;28;20032;-82
2021/07/31 09:48:04;;;;;;;3.30;1.52;;;;;;;;;;5090258;28;20038;-81
2021/07/31 09:50:36;;;;;;;4.63;1.90;;;;;;;;;;5089985;28;20024;-81
2021/07/31 09:53:05;;;;;;;4.95;1.60;;;;;;;;;;5090418;28;20036;-82
2021/07/31 09:55:31;;;;;;;3.05;1.75;;;;;;;;;;5090166;28;20040;-81
2021/07/31 09:57:57;;;;;;;5.00;2.28;;;;;;;;;;5090637;28;20028;-81
2021/07/31 10:00:22;;;;;;;2.60;1.50;;;;;;;;;;5089890;28;20032;-82
2021/07/31 10:02:47;;;;;;;5.40;1.45;;;;;;;;;;5090176;28;20361;-81
2021/07/31 10:05:16;;;;;;;1.85;1.50;;;;;;;;;;5090189;28;20019;-82
2021/07/31 10:07:42;;;;;;;5.15;1.40;;;;;;;;;;5090579;28;20031;-81
2021/07/31 10:10:08;;;;;;;5.05;1.55;;;;;;;;;;5090163;28;20332;-82
2021/07/31 10:12:34;;;;;;;5.18;1.55;;;;;;;;;;5090845;28;20024;-81
2021/07/31 10:15:00;;;;;;;4.47;1.77;;;;;;;;;;5090059;28;20194;-81
2021/07/31 10:17:26;;;;;;;2.83;1.40;;;;;;;;;;5089815;28;20036;-81
2021/07/31 10:19:52;;;;;;;2.95;1.48;;;;;;;;;;5089808;28;20093;-81
2021/07/31 10:22:18;;;;;;;1.73;1.17;;;;;;;;;;5089828;28;20028;-82
2021/07/31 10:25:03;;;;;;;3.83;1.10;;;;;;;;;;5094283;28;20486;-82
2021/07/31 10:27:28;;;;;;;1.50;1.02;;;;;;;;;;5093376;28;20043;-81
2021/07/31 10:29:54;;;;;;;2.58;1.30;;;;;;;;;;5094159;28;20028;-81
2021/07/31 10:32:29;;;;;;;23.95;2.80;;;;;;;;;;5094480;28;20024;-82
2021/07/31 10:34:57;;;;;;;;;;;;;;;;;;5094873;28;20024;-81
2021/07/31 10:37:29;;;;;;;2.78;1.23;;;;;;;;;;5094538;28;19904;-81
2021/07/31 10:39:55;;;;;;;5.55;1.42;;;;;;;;;;5094308;28;20081;-81
2021/07/31 10:42:21;;;;;;;1.80;1.15;;;;;;;;;;5094310;28;20032;-82
2021/07/31 10:45:05;;;;;;;4.50;1.30;;;;;;;;;;5094949;28;20023;-82
2021/07/31 10:47:30;;;;;;;4.60;1.60;;;;;;;;;;5094094;28;20115;-82
2021/07/31 10:49:55;;;;;;;5.03;1.48;;;;;;;;;;5093886;28;20099;-82
2021/07/31 10:52:39;;;;;;;7.07;1.35;;;;;;;;;;5094697;28;20383;-81
2021/07/31 10:55:04;;;;;;;6.72;1.45;;;;;;;;;;5094009;28;20119;-82
2021/07/31 10:57:48;;;;;;;2.40;1.15;;;;;;;;;;5093867;28;20074;-82
2021/07/31 11:00:22;;;;;;;3.95;1.42;;;;;;;;;;5093632;28;20031;-82
2021/07/31 11:02:47;;;;;;;2.27;1.10;;;;;;;;;;5093900;28;20198;-82
2021/07/31 11:05:13;;;;;;;2.45;1.10;;;;;;;;;;5094198;28;20764;-82
2021/07/31 11:07:56;;;;;;;4.75;1.30;;;;;;;;;;5093983;28;20042;-82
2021/07/31 11:10:42;;;;;;;2.28;1.13;;;;;;;;;;5093689;28;20119;-82
2021/07/31 11:13:07;;;;;;;;;;;;;;;;;;5092894;28;20484;-82
2021/07/31 11:15:32;;;;;;;5.70;1.20;;;;;;;;;;5093972;28;20002;-81
2021/07/31 11:18:01;;;;;;;5.57;1.20;;;;;;;;;;5095880;28;20047;-82
2021/07/31 11:20:31;;;;;;;1.63;1.05;;;;;;;;;;5095623;28;20047;-81
2021/07/31 11:22:56;;;;;;;2.50;1.30;;;;;;;;;;5096068;28;20422;-82
2021/07/31 11:25:22;;;;;;;2.47;1.20;;;;;;;;;;5095733;28;20024;-81
2021/07/31 11:27:58;;;;;;;3.17;1.10;;;;;;;;;;5096239;28;20070;-81
2021/07/31 11:30:35;;;;;;;2.55;1.20;;;;;;;;;;5095793;28;20028;-81
2021/07/31 11:33:16;;;;;;;1.95;0.90;;;;;;;;;;5093331;28;20032;-81
2021/07/31 11:35:41;;;;;;;2.60;1.30;;;;;;;;;;5094675;28;20032;-81
2021/07/31 11:38:25;;;;;;;1.92;1.00;;;;;;;;;;5083434;28;20035;-82
2021/07/31 11:40:57;;;;;;;3.05;1.60;;;;;;;;;;5095143;28;20047;-82
2021/07/31 11:43:22;;;;;;;3.25;1.30;;;;;;;;;;5095437;28;20027;-81
2021/07/31 11:45:48;;;;;;;1.92;0.82;;;;;;;;;;5095856;28;20372;-82
2021/07/31 11:48:13;;;;;;;1.27;0.90;;;;;;;;;;5095223;28;20460;-82
2021/07/31 11:50:38;;;;;;;1.33;0.80;;;;;;;;;;5094328;28;20032;-82
2021/07/31 11:53:22;;;;;;;2.05;0.95;;;;;;;;;;5095144;28;20023;-81
2021/07/31 11:55:48;;;;;;;2.47;1.10;;;;;;;;;;5095320;28;20024;-81
2021/07/31 11:58:15;;;;;;;3.30;0.88;;;;;;;;;;5095536;28;20101;-82
2021/07/31 12:00:40;;;;;;;1.25;0.68;;;;;;;;;;5094988;28;20040;-82
2021/07/31 12:03:44;;;;;;;3.00;1.00;;;;;;;;;;5095375;28;20024;-81
2021/07/31 12:06:27;;;;;;;2.05;0.80;;;;;;;;;;5040744;28;20041;-81
2021/07/31 12:08:53;;;;;;;1.50;0.70;;;;;;;;;;5032580;28;20033;-80
2021/07/31 12:11:29;;;;;;;3.92;1.00;;;;;;;;;;5068981;28;20052;-81
2021/07/31 12:13:54;;;;;;;1.45;0.70;;;;;;;;;;5095107;28;20036;-81
2021/07/31 12:16:25;;;;;;;1.98;0.90;;;;;;;;;;5094900;28;20089;-80
2021/07/31 12:18:51;;;;;;;1.27;0.98;;;;;;;;;;5095240;28;20016;-81
2021/07/31 12:21:26;;;;;;;4.00;0.95;;;;;;;;;;5094584;28;20056;-81
2021/07/31 12:23:51;;;;;;;1.80;1.02;;;;;;;;;;5094348;28;20775;-80
2021/07/31 12:26:29;;;;;;;5.25;1.40;;;;;;;;;;5095028;28;20032;-81
2021/07/31 12:28:56;;;;;;;3.63;1.10;;;;;;;;;;5094281;28;20495;-80
2021/07/31 12:31:23;;;;;;;2.45;0.98;;;;;;;;;;5099023;28;20032;-81
2021/07/31 12:33:48;;;;;;;1.10;0.80;;;;;;;;;;5096508;28;20061;-81
2021/07/31 12:36:13;;;;;;;2.47;0.98;;;;;;;;;;5095359;28;20055;-82
2021/07/31 12:38:38;;;;;;;2.17;0.90;;;;;;;;;;5110910;28;20032;-81
2021/07/31 12:41:04;;;;;;;3.42;1.20;;;;;;;;;;5097853;28;20071;-79
2021/07/31 12:43:30;;;;;;;3.60;1.30;;;;;;;;;;5108447;28;20016;-81
2021/07/31 12:46:02;;;;;;;5.35;1.23;;;;;;;;;;5103895;28;20055;-81
2021/07/31 12:48:28;;;;;;;3.92;1.10;;;;;;;;;;5103270;28;20448;-81
2021/07/31 12:50:54;;;;;;;0.60;0.60;;;;;;;;;;5095705;28;20040;-80
2021/07/31 12:53:20;;;;;;;2.17;1.10;;;;;;;;;;5095557;28;20052;-80
2021/07/31 12:55:46;;;;;;;2.20;0.90;;;;;;;;;;5098520;28;20116;-80
2021/07/31 12:58:11;;;;;;;2.67;1.08;;;;;;;;;;5096243;28;20507;-81
2021/07/31 13:00:37;;;;;;;3.28;0.90;;;;;;;;;;5094268;28;20051;-81
2021/07/31 13:03:03;;;;;;;4.65;1.33;;;;;;;;;;5094100;28;20028;-81
2021/07/31 13:05:28;;;;;;;1.75;1.27;;;;;;;;;;5093900;28;20016;-81
2021/07/31 13:07:56;;;;;;;3.40;1.10;;;;;;;;;;5094308;28;20032;-80
2021/07/31 13:10:21;;;;;;;2.58;1.02;;;;;;;;;;5094058;28;20105;-80
2021/07/31 13:12:47;;;;;;;2.35;1.30;;;;;;;;;;5094150;28;20062;-81
2021/07/31 13:15:12;;;;;;;2.95;1.00;;;;;;;;;;5093786;28;20082;-80
2021/07/31 13:17:38;;;;;;;4.07;1.10;;;;;;;;;;5088856;28;20040;-81
2021/07/31 13:20:03;;;;;;;2.17;1.33;;;;;;;;;;5091001;28;20020;-81
2021/07/31 13:22:29;;;;;;;2.25;1.25;;;;;;;;;;5092677;28;20060;-80
2021/07/31 13:24:57;;;;;;;3.10;1.30;;;;;;;;;;5093037;28;20040;-80
2021/07/31 13:27:23;;;;;;;1.23;0.90;;;;;;;;;;5092836;28;20085;-80
2021/07/31 13:29:48;;;;;;;3.70;1.33;;;;;;;;;;5092250;28;20442;-80
2021/07/31 13:32:14;;;;;;;3.42;1.10;;;;;;;;;;5093336;28;20447;-79
2021/07/31 13:34:39;;;;;;;3.15;1.20;;;;;;;;;;5092963;28;20020;-81
2021/07/31 13:37:06;;;;;;;2.03;1.23;;;;;;;;;;5093054;28;20422;-79
2021/07/31 13:39:42;;;;;;;3.05;1.17;;;;;;;;;;5092071;28;20024;-80
2021/07/31 13:42:07;;;;;;;3.72;1.40;;;;;;;;;;5092765;28;20111;-79
2021/07/31 13:44:32;;;;;;;2.80;1.45;;;;;;;;;;5092083;28;20108;-79
2021/07/31 13:46:57;;;;;;;5.35;1.60;;;;;;;;;;5092671;28;20094;-79
2021/07/31 13:49:23;;;;;;;1.92;1.15;;;;;;;;;;5092365;28;20419;-80
2021/07/31 13:51:48;;;;;;;3.40;1.48;;;;;;;;;;5092664;28;20079;-80
2021/07/31 13:54:13;;;;;;;3.95;1.52;;;;;;;;;;5092231;28;20506;-79
2021/07/31 13:56:39;;;;;;;6.40;1.50;;;;;;;;;;5092919;28;20031;-79
2021/07/31 13:59:04;;;;;;;3.38;1.70;;;;;;;;;;5092749;28;20036;-80
2021/07/31 14:01:30;;;;;;;2.25;1.40;;;;;;;;;;5093052;28;20086;-79
2021/07/31 14:03:58;;;;;;;2.92;1.30;;;;;;;;;;5093090;28;20020;-80
2021/07/31 14:06:23;;;;;;;2.72;1.40;;;;;;;;;;5093068;28;20035;-78
2021/07/31 14:08:48;;;;;;;3.40;1.73;;;;;;;;;;5093111;28;20024;-78
2021/07/31 14:11:16;;;;;;;3.00;1.27;;;;;;;;;;5093360;28;20023;-79
2021/07/31 14:13:41;;;;;;;5.25;1.33;;;;;;;;;;5093215;28;20065;-78
2021/07/31 14:16:06;;;;;;;2.70;1.52;;;;;;;;;;5092637;28;20102;-78
2021/07/31 14:18:31;;;;;;;3.67;1.30;;;;;;;;;;5093104;28;20020;-78
2021/07/31 14:20:57;;;;;;;5.30;1.33;;;;;;;;;;5092836;28;20074;-78
2021/07/31 14:23:22;;;;;;;3.53;1.40;;;;;;;;;;5092983;28;20100;-78
2021/07/31 14:25:47;;;;;;;5.53;1.77;;;;;;;;;;5092846;28;20016;-77
2021/07/31 14:28:13;;;;;;;2.15;1.30;;;;;;;;;;5091677;28;20032;-78
2021/07/31 14:30:38;;;;;;;7.65;1.58;;;;;;;;;;5092758;28;20509;-78
2021/07/31 14:33:03;;;;;;;8.48;2.20;;;;;;;;;;5092789;28;20047;-76
2021/07/31 14:35:29;;;;;;;2.25;1.10;;;;;;;;;;5092340;28;20504;-77
2021/07/31 14:37:57;;;;;;;3.13;1.33;;;;;;;;;;5092926;28;20020;-78